createdAt,value
2018-03-02T00:00:36.895Z,927.02
2018-03-02T00:02:08.715Z,927.10
2018-03-02T00:03:40.532Z,927.09
2018-03-02T00:05:12.351Z,927.08
2018-03-02T00:06:44.168Z,927.15
2018-03-02T00:08:15.986Z,927.15
2018-03-02T00:09:47.805Z,927.21
2018-03-02T00:11:19.623Z,927.22
2018-03-02T00:12:51.441Z,927.20
2018-03-02T00:14:23.259Z,927.23
2018-03-02T00:15:55.077Z,927.27
2018-03-02T00:17:26.994Z,927.26
2018-03-02T00:18:58.712Z,927.31
2018-03-02T00:20:30.531Z,927.33
2018-03-02T00:22:02.349Z,927.31
2018-03-02T00:23:34.167Z,927.32
2018-03-02T00:25:05.985Z,927.32
2018-03-02T00:26:37.806Z,927.32
2018-03-02T00:28:09.622Z,927.32
2018-03-02T00:29:41.690Z,927.33
2018-03-02T00:31:13.258Z,927.35
2018-03-02T00:32:45.074Z,927.37
2018-03-02T00:34:16.899Z,927.42
2018-03-02T00:35:48.810Z,927.39
2018-03-02T00:37:20.528Z,927.42
2018-03-02T00:38:52.347Z,927.35
2018-03-02T00:40:24.165Z,927.36
2018-03-02T00:41:56.084Z,927.35
2018-03-02T00:43:27.802Z,927.33
2018-03-02T00:44:59.623Z,927.30
2018-03-02T00:46:31.438Z,927.31
2018-03-02T00:48:03.257Z,927.34
2018-03-02T00:49:35.074Z,927.33
2018-03-02T00:51:06.892Z,927.32
2018-03-02T00:52:38.710Z,927.30
2018-03-02T00:54:10.628Z,927.28
2018-03-02T00:55:42.349Z,927.28
2018-03-02T00:57:14.164Z,927.29
2018-03-02T00:58:45.981Z,927.24
2018-03-02T01:00:17.800Z,927.22
2018-03-02T01:01:49.617Z,927.23
2018-03-02T01:03:21.435Z,927.18
2018-03-02T01:04:53.252Z,927.22
2018-03-02T01:06:25.071Z,927.24
2018-03-02T01:07:56.887Z,927.22
2018-03-02T01:09:28.707Z,927.24
2018-03-02T01:11:00.523Z,927.16
2018-03-02T01:12:32.893Z,927.16
2018-03-02T01:14:04.158Z,927.10
2018-03-02T01:15:35.975Z,927.12
2018-03-02T01:17:07.793Z,927.15
2018-03-02T01:18:39.612Z,927.15
2018-03-02T01:20:11.428Z,927.13
2018-03-02T01:21:43.245Z,927.21
2018-03-02T01:23:15.062Z,927.16
2018-03-02T01:24:46.879Z,927.21
2018-03-02T01:26:18.696Z,927.21
2018-03-02T01:27:50.514Z,927.16
2018-03-02T01:29:22.332Z,927.13
2018-03-02T01:30:54.248Z,927.08
2018-03-02T01:32:25.965Z,927.04
2018-03-02T01:33:57.783Z,927.04
2018-03-02T01:35:29.601Z,927.01
2018-03-02T01:37:01.518Z,927.03
2018-03-02T01:38:33.285Z,927.02
2018-03-02T01:40:05.052Z,927.04
2018-03-02T01:41:36.869Z,927.09
2018-03-02T01:43:08.687Z,927.12
2018-03-02T01:44:40.504Z,927.09
2018-03-02T01:46:12.321Z,927.13
2018-03-02T01:47:44.139Z,927.08
2018-03-02T01:49:16.057Z,927.07
2018-03-02T01:50:47.775Z,927.07
2018-03-02T01:52:19.590Z,927.04
2018-03-02T01:53:51.408Z,927.00
2018-03-02T01:55:23.282Z,927.02
2018-03-02T01:56:55.047Z,927.02
2018-03-02T01:58:26.860Z,927.04
2018-03-02T01:59:58.679Z,927.03
2018-03-02T02:01:30.497Z,926.99
2018-03-02T02:03:02.315Z,926.94
2018-03-02T02:04:34.140Z,926.88
2018-03-02T02:06:05.949Z,926.89
2018-03-02T02:07:37.967Z,926.88
2018-03-02T02:09:09.585Z,926.87
2018-03-02T02:10:41.404Z,926.93
2018-03-02T02:12:13.220Z,926.88
2018-03-02T02:13:45.038Z,926.85
2018-03-02T02:15:16.855Z,926.86
2018-03-02T02:16:48.724Z,926.80
2018-03-02T02:18:20.490Z,926.80
2018-03-02T02:19:52.309Z,926.81
2018-03-02T02:21:24.127Z,926.78
2018-03-02T02:22:55.944Z,926.85
2018-03-02T02:24:27.762Z,926.85
2018-03-02T02:25:59.680Z,926.82
2018-03-02T02:27:31.398Z,926.81
2018-03-02T02:29:03.215Z,926.78
2018-03-02T02:30:35.034Z,926.79
2018-03-02T02:32:06.851Z,926.81
2018-03-02T02:33:38.669Z,926.76
2018-03-02T02:35:10.486Z,926.79
2018-03-02T02:36:42.303Z,926.76
2018-03-02T02:38:14.221Z,926.76
2018-03-02T02:39:45.939Z,926.73
2018-03-02T02:41:17.758Z,926.64
2018-03-02T02:42:49.576Z,926.63
2018-03-02T02:44:21.497Z,926.62
2018-03-02T02:45:53.210Z,926.59
2018-03-02T02:47:25.027Z,926.58
2018-03-02T02:48:56.849Z,926.60
2018-03-02T02:50:28.664Z,926.55
2018-03-02T02:52:00.482Z,926.57
2018-03-02T02:53:32.304Z,926.50
2018-03-02T02:55:04.119Z,926.46
2018-03-02T02:56:35.935Z,926.52
2018-03-02T02:58:07.764Z,926.47
2018-03-02T02:59:39.572Z,926.49
2018-03-02T03:01:11.389Z,926.50
2018-03-02T03:02:43.306Z,926.54
2018-03-02T03:04:15.029Z,926.57
2018-03-02T03:05:46.842Z,926.51
2018-03-02T03:07:18.660Z,926.53
2018-03-02T03:08:50.577Z,926.50
2018-03-02T03:10:22.295Z,926.48
2018-03-02T03:11:54.114Z,926.47
2018-03-02T03:13:25.930Z,926.50
2018-03-02T03:14:57.898Z,926.57
2018-03-02T03:16:29.566Z,926.55
2018-03-02T03:18:01.383Z,926.59
2018-03-02T03:19:33.201Z,926.56
2018-03-02T03:21:05.218Z,926.54
2018-03-02T03:22:36.836Z,926.61
2018-03-02T03:24:08.654Z,926.61
2018-03-02T03:25:40.471Z,926.58
2018-03-02T03:27:12.288Z,926.55
2018-03-02T03:28:44.106Z,926.59
2018-03-02T03:30:15.928Z,926.54
2018-03-02T03:31:47.755Z,926.53
2018-03-02T03:33:19.563Z,926.51
2018-03-02T03:34:51.376Z,926.49
2018-03-02T03:36:23.192Z,926.45
2018-03-02T03:37:55.012Z,926.45
2018-03-02T03:39:26.927Z,926.40
2018-03-02T03:40:58.645Z,926.36
2018-03-02T03:42:30.462Z,926.36
2018-03-02T03:44:02.279Z,926.35
2018-03-02T03:45:34.095Z,926.35
2018-03-02T03:47:05.912Z,926.34
2018-03-02T03:48:37.734Z,926.36
2018-03-02T03:50:09.547Z,926.27
2018-03-02T03:51:41.363Z,926.23
2018-03-02T03:53:13.186Z,926.19
2018-03-02T03:54:44.999Z,926.12
2018-03-02T03:56:16.814Z,926.14
2018-03-02T03:57:48.734Z,926.12
2018-03-02T03:59:20.462Z,926.12
2018-03-02T04:00:52.265Z,926.12
2018-03-02T04:02:24.082Z,926.13
2018-03-02T04:03:55.898Z,926.12
2018-03-02T04:05:27.716Z,926.10
2018-03-02T04:06:59.533Z,926.04
2018-03-02T04:08:31.350Z,926.02
2018-03-02T04:10:03.273Z,926.03
2018-03-02T04:11:34.984Z,926.03
2018-03-02T04:13:06.800Z,926.05
2018-03-02T04:14:38.618Z,926.07
2018-03-02T04:16:10.688Z,926.02
2018-03-02T04:17:42.252Z,926.02
2018-03-02T04:19:14.069Z,926.03
2018-03-02T04:20:45.886Z,925.96
2018-03-02T04:22:17.703Z,925.94
2018-03-02T04:23:49.519Z,925.91
2018-03-02T04:25:21.337Z,925.90
2018-03-02T04:26:53.153Z,925.92
2018-03-02T04:28:24.970Z,925.90
2018-03-02T04:29:56.786Z,925.95
2018-03-02T04:31:28.603Z,925.98
2018-03-02T04:33:00.420Z,925.99
2018-03-02T04:34:32.337Z,926.02
2018-03-02T04:36:04.055Z,926.00
2018-03-02T04:37:35.882Z,925.97
2018-03-02T04:39:07.687Z,925.96
2018-03-02T04:40:39.606Z,925.93
2018-03-02T04:42:11.320Z,926.01
2018-03-02T04:43:43.138Z,926.03
2018-03-02T04:45:14.962Z,926.08
2018-03-02T04:46:46.770Z,926.06
2018-03-02T04:48:18.588Z,926.06
2018-03-02T04:49:50.404Z,925.98
2018-03-02T04:51:22.222Z,925.94
2018-03-02T04:52:54.439Z,925.92
2018-03-02T04:54:25.864Z,925.81
2018-03-02T04:55:57.673Z,925.84
2018-03-02T04:57:29.492Z,925.80
2018-03-02T04:59:01.306Z,925.79
2018-03-02T05:00:33.127Z,925.81
2018-03-02T05:02:04.940Z,925.77
2018-03-02T05:03:36.765Z,925.80
2018-03-02T05:05:08.673Z,925.75
2018-03-02T05:06:40.389Z,925.78
2018-03-02T05:08:12.206Z,925.75
2018-03-02T05:09:44.023Z,925.75
2018-03-02T05:11:16.041Z,925.72
2018-03-02T05:12:47.657Z,925.66
2018-03-02T05:14:19.474Z,925.69
2018-03-02T05:15:51.290Z,925.68
2018-03-02T05:17:23.107Z,925.66
2018-03-02T05:18:54.924Z,925.65
2018-03-02T05:20:26.780Z,925.64
2018-03-02T05:21:58.557Z,925.59
2018-03-02T05:23:30.628Z,925.62
2018-03-02T05:25:02.190Z,925.65
2018-03-02T05:26:34.007Z,925.68
2018-03-02T05:28:05.824Z,925.67
2018-03-02T05:29:37.740Z,925.65
2018-03-02T05:31:09.457Z,925.65
2018-03-02T05:32:41.277Z,925.65
2018-03-02T05:34:13.092Z,925.60
2018-03-02T05:35:44.907Z,925.62
2018-03-02T05:37:16.723Z,925.59
2018-03-02T05:38:48.541Z,925.58
2018-03-02T05:40:20.357Z,925.56
2018-03-02T05:41:52.273Z,925.59
2018-03-02T05:43:23.993Z,925.58
2018-03-02T05:44:55.812Z,925.59
2018-03-02T05:46:27.624Z,925.60
2018-03-02T05:47:59.692Z,925.59
2018-03-02T05:49:31.258Z,925.58
2018-03-02T05:51:03.074Z,925.62
2018-03-02T05:52:34.895Z,925.64
2018-03-02T05:54:06.958Z,925.62
2018-03-02T05:55:38.526Z,925.61
2018-03-02T05:57:10.340Z,925.61
2018-03-02T05:58:42.157Z,925.66
2018-03-02T06:00:13.974Z,925.61
2018-03-02T06:01:45.791Z,925.58
2018-03-02T06:03:17.607Z,925.61
2018-03-02T06:04:49.423Z,925.57
2018-03-02T06:06:21.340Z,925.52
2018-03-02T06:07:53.058Z,925.49
2018-03-02T06:09:24.873Z,925.50
2018-03-02T06:10:56.689Z,925.49
2018-03-02T06:12:28.607Z,925.53
2018-03-02T06:14:00.322Z,925.50
2018-03-02T06:15:32.138Z,925.54
2018-03-02T06:17:03.956Z,925.61
2018-03-02T06:18:35.774Z,925.60
2018-03-02T06:20:07.589Z,925.57
2018-03-02T06:21:39.404Z,925.53
2018-03-02T06:23:11.221Z,925.50
2018-03-02T06:24:43.439Z,925.50
2018-03-02T06:26:14.854Z,925.47
2018-03-02T06:27:46.671Z,925.52
2018-03-02T06:29:18.488Z,925.57
2018-03-02T06:30:50.304Z,925.59
2018-03-02T06:32:22.120Z,925.59
2018-03-02T06:33:53.937Z,925.65
2018-03-02T06:35:25.754Z,925.63
2018-03-02T06:36:57.570Z,925.62
2018-03-02T06:38:29.386Z,925.62
2018-03-02T06:40:01.202Z,925.58
2018-03-02T06:41:33.019Z,925.55
2018-03-02T06:43:04.936Z,925.54
2018-03-02T06:44:36.652Z,925.53
2018-03-02T06:46:08.469Z,925.50
2018-03-02T06:47:40.285Z,925.54
2018-03-02T06:49:12.203Z,925.51
2018-03-02T06:50:43.922Z,925.53
2018-03-02T06:52:15.735Z,925.62
2018-03-02T06:53:47.552Z,925.62
2018-03-02T06:55:19.619Z,925.64
2018-03-02T06:56:51.185Z,925.64
2018-03-02T06:58:23.001Z,925.64
2018-03-02T06:59:54.818Z,925.64
2018-03-02T07:01:26.739Z,925.64
2018-03-02T07:02:58.455Z,925.64
2018-03-02T07:04:30.273Z,925.63
2018-03-02T07:06:02.088Z,925.62
2018-03-02T07:07:33.901Z,925.65
2018-03-02T07:09:05.717Z,925.66
2018-03-02T07:10:37.534Z,925.68
2018-03-02T07:12:09.351Z,925.67
2018-03-02T07:13:41.267Z,925.68
2018-03-02T07:15:12.984Z,925.70
2018-03-02T07:16:44.800Z,925.72
2018-03-02T07:18:16.617Z,925.73
2018-03-02T07:19:48.533Z,925.74
2018-03-02T07:21:20.254Z,925.77
2018-03-02T07:22:52.097Z,925.74
2018-03-02T07:24:23.882Z,925.74
2018-03-02T07:25:55.699Z,925.72
2018-03-02T07:27:27.516Z,925.70
2018-03-02T07:28:59.332Z,925.70
2018-03-02T07:30:31.149Z,925.65
2018-03-02T07:32:02.965Z,925.61
2018-03-02T07:33:34.782Z,925.57
2018-03-02T07:35:06.598Z,925.55
2018-03-02T07:36:38.415Z,925.55
2018-03-02T07:38:10.332Z,925.58
2018-03-02T07:39:42.047Z,925.59
2018-03-02T07:41:13.863Z,925.56
2018-03-02T07:42:45.681Z,925.55
2018-03-02T07:44:17.693Z,925.59
2018-03-02T07:45:49.313Z,925.59
2018-03-02T07:47:21.129Z,925.57
2018-03-02T07:48:52.946Z,925.57
2018-03-02T07:50:24.762Z,925.59
2018-03-02T07:51:56.578Z,925.61
2018-03-02T07:53:28.394Z,925.61
2018-03-02T07:55:00.213Z,925.64
2018-03-02T07:56:32.128Z,925.63
2018-03-02T07:58:03.843Z,925.67
2018-03-02T07:59:35.667Z,925.70
2018-03-02T08:01:07.477Z,925.70
2018-03-02T08:02:39.294Z,925.69
2018-03-02T08:04:11.109Z,925.68
2018-03-02T08:05:42.928Z,925.69
2018-03-02T08:07:14.742Z,925.73
2018-03-02T08:08:46.558Z,925.77
2018-03-02T08:10:18.374Z,925.72
2018-03-02T08:11:50.190Z,925.76
2018-03-02T08:13:22.019Z,925.76
2018-03-02T08:14:53.923Z,925.76
2018-03-02T08:16:25.639Z,925.78
2018-03-02T08:17:57.459Z,925.77
2018-03-02T08:19:29.272Z,925.77
2018-03-02T08:21:01.088Z,925.78
2018-03-02T08:22:32.904Z,925.75
2018-03-02T08:24:04.722Z,925.77
2018-03-02T08:25:36.536Z,925.80
2018-03-02T08:27:08.352Z,925.76
2018-03-02T08:28:40.177Z,925.81
2018-03-02T08:30:11.986Z,925.84
2018-03-02T08:31:43.802Z,925.81
2018-03-02T08:33:15.717Z,925.84
2018-03-02T08:34:47.434Z,925.83
2018-03-02T08:36:19.252Z,925.85
2018-03-02T08:37:51.066Z,925.85
2018-03-02T08:39:22.883Z,925.86
2018-03-02T08:40:54.699Z,925.84
2018-03-02T08:42:26.516Z,925.88
2018-03-02T08:43:58.354Z,925.92
2018-03-02T08:45:30.259Z,925.93
2018-03-02T08:47:01.965Z,925.94
2018-03-02T08:48:33.781Z,925.95
2018-03-02T08:50:05.598Z,925.94
2018-03-02T08:51:37.514Z,925.93
2018-03-02T08:53:09.230Z,925.95
2018-03-02T08:54:41.046Z,926.00
2018-03-02T08:56:12.862Z,926.03
2018-03-02T08:57:44.680Z,926.07
2018-03-02T08:59:16.498Z,926.09
2018-03-02T09:00:48.311Z,926.10
2018-03-02T09:02:20.126Z,926.16
2018-03-02T09:03:51.944Z,926.17
2018-03-02T09:05:23.759Z,926.22
2018-03-02T09:06:55.577Z,926.22
2018-03-02T09:08:27.392Z,926.23
2018-03-02T09:09:59.308Z,926.24
2018-03-02T09:11:31.026Z,926.23
2018-03-02T09:13:02.841Z,926.24
2018-03-02T09:14:34.659Z,926.21
2018-03-02T09:16:06.575Z,926.23
2018-03-02T09:17:38.291Z,926.22
2018-03-02T09:19:10.107Z,926.26
2018-03-02T09:20:41.923Z,926.26
2018-03-02T09:22:13.741Z,926.28
2018-03-02T09:23:45.567Z,926.36
2018-03-02T09:25:17.374Z,926.38
2018-03-02T09:26:49.190Z,926.40
2018-03-02T09:28:21.715Z,926.41
2018-03-02T09:29:52.824Z,926.44
2018-03-02T09:31:24.642Z,926.45
2018-03-02T09:32:56.458Z,926.43
2018-03-02T09:34:28.275Z,926.48
2018-03-02T09:36:00.093Z,926.49
2018-03-02T09:37:31.922Z,926.54
2018-03-02T09:39:03.931Z,926.59
2018-03-02T09:40:35.545Z,926.57
2018-03-02T09:43:39.382Z,926.63
2018-03-02T09:45:11.000Z,926.66
2018-03-02T09:46:43.223Z,926.64
2018-03-02T09:48:14.648Z,926.65
2018-03-02T09:49:46.454Z,926.64
2018-03-02T09:51:18.274Z,926.67
2018-03-02T09:52:50.092Z,926.69
2018-03-02T09:54:21.911Z,926.68
2018-03-02T09:55:53.950Z,926.77
2018-03-02T09:57:25.557Z,926.79
2018-03-02T09:58:57.621Z,926.82
2018-03-02T10:02:01.010Z,926.87
2018-03-02T10:03:32.845Z,926.92
2018-03-02T10:05:04.749Z,926.94
2018-03-02T10:06:36.468Z,927.01
2018-03-02T10:08:08.815Z,926.98
2018-03-02T10:09:40.106Z,927.02
2018-03-02T10:11:12.132Z,926.97
2018-03-02T10:12:44.345Z,926.98
2018-03-02T10:14:15.565Z,926.99
2018-03-02T10:15:47.385Z,926.99
2018-03-02T10:17:19.228Z,927.02
2018-03-02T10:18:51.024Z,927.06
2018-03-02T10:20:22.846Z,927.10
2018-03-02T10:21:54.663Z,927.11
2018-03-02T10:23:27.306Z,927.14
2018-03-02T10:24:58.301Z,927.16
2018-03-02T10:26:30.120Z,927.16
2018-03-02T10:29:33.968Z,927.17
2018-03-02T10:31:05.579Z,927.17
2018-03-02T10:32:38.194Z,927.21
2018-03-02T10:34:09.217Z,927.17
2018-03-02T10:35:42.231Z,927.18
2018-03-02T10:37:13.163Z,927.21
2018-03-02T10:41:48.716Z,927.27
2018-03-02T10:46:24.307Z,927.33
2018-03-02T10:47:55.904Z,927.27
2018-03-02T10:49:27.628Z,927.26
2018-03-02T10:50:59.236Z,927.28
2018-03-02T10:52:31.101Z,927.32
2018-03-02T10:54:02.879Z,927.31
2018-03-02T10:55:35.005Z,927.32
2018-03-02T10:57:06.526Z,927.37
2018-03-02T10:58:38.380Z,927.39
2018-03-02T11:00:10.269Z,927.43
2018-03-02T11:01:41.991Z,927.46
2018-03-02T11:04:45.677Z,927.53
2018-03-02T11:06:17.460Z,927.51
2018-03-02T11:07:49.284Z,927.51
2018-03-02T11:09:21.111Z,927.48
2018-03-02T11:12:24.756Z,927.48
2018-03-02T11:13:57.037Z,927.42
2018-03-02T11:15:28.615Z,927.43
2018-03-02T11:17:00.228Z,927.43
2018-03-02T11:20:03.978Z,927.42
2018-03-02T11:21:35.951Z,927.42
2018-03-02T11:23:07.783Z,927.46
2018-03-02T11:24:39.352Z,927.43
2018-03-02T11:26:11.501Z,927.41
2018-03-02T11:27:43.002Z,927.46
2018-03-02T11:29:15.035Z,927.48
2018-03-02T11:30:46.772Z,927.43
2018-03-02T11:32:19.188Z,927.50
2018-03-02T11:33:50.298Z,927.42
2018-03-02T11:35:22.435Z,927.48
2018-03-02T11:36:53.948Z,927.50
2018-03-02T11:39:57.706Z,927.48
2018-03-02T11:41:29.452Z,927.47
2018-03-02T11:43:01.774Z,927.47
2018-03-02T11:44:33.106Z,927.55
2018-03-02T11:47:37.136Z,927.52
2018-03-02T11:50:40.377Z,927.56
2018-03-02T11:52:12.465Z,927.58
2018-03-02T11:53:44.077Z,927.54
2018-03-02T11:55:15.857Z,927.53
2018-03-02T11:58:19.503Z,927.46
2018-03-02T11:59:51.499Z,927.46
2018-03-02T12:01:23.157Z,927.44
2018-03-02T12:02:54.984Z,927.51
2018-03-02T12:04:26.808Z,927.45
2018-03-02T12:07:30.456Z,927.51
2018-03-02T12:09:02.297Z,927.57
2018-03-02T12:10:34.149Z,927.62
2018-03-02T12:12:06.959Z,927.63
2018-03-02T12:15:09.908Z,927.61
2018-03-02T12:16:41.745Z,927.63
2018-03-02T12:18:13.234Z,927.65
2018-03-02T12:19:45.058Z,927.60
2018-03-02T12:21:17.188Z,927.61
2018-03-02T12:22:48.758Z,927.62
2018-03-02T12:24:20.536Z,927.53
2018-03-02T12:25:52.364Z,927.51
2018-03-02T12:27:24.188Z,927.45
2018-03-02T12:28:56.016Z,927.47
2018-03-02T12:30:27.842Z,927.50
2018-03-02T12:31:59.670Z,927.50
2018-03-02T12:33:31.900Z,927.54
2018-03-02T12:35:03.323Z,927.55
2018-03-02T12:36:35.185Z,927.57
2018-03-02T12:38:07.014Z,927.53
2018-03-02T12:39:38.860Z,927.58
2018-03-02T12:42:42.672Z,927.65
2018-03-02T12:44:14.288Z,927.58
2018-03-02T12:45:46.315Z,927.55
2018-03-02T12:47:17.948Z,927.56
2018-03-02T12:48:49.996Z,927.60
2018-03-02T12:51:53.782Z,927.62
2018-03-02T12:53:25.278Z,927.66
2018-03-02T12:54:57.236Z,927.62
2018-03-02T12:56:28.915Z,927.67
2018-03-02T12:59:32.576Z,927.68
2018-03-02T13:01:04.604Z,927.71
2018-03-02T13:02:36.233Z,927.70
2018-03-02T13:04:08.060Z,927.65
2018-03-02T13:05:39.890Z,927.59
2018-03-02T13:07:11.718Z,927.71
2018-03-02T13:08:43.644Z,927.76
2018-03-02T13:11:47.671Z,927.64
2018-03-02T13:13:19.048Z,927.65
2018-03-02T13:14:51.029Z,927.42
2018-03-02T13:16:22.709Z,927.52
2018-03-02T13:17:54.623Z,927.69
2018-03-02T13:19:26.350Z,927.64
2018-03-02T13:20:58.196Z,927.66
2018-03-02T13:22:30.020Z,927.67
2018-03-02T13:24:01.950Z,927.63
2018-03-02T13:25:33.692Z,927.54
2018-03-02T13:27:05.494Z,927.46
2018-03-02T13:30:09.910Z,927.42
2018-03-02T13:31:41.551Z,927.62
2018-03-02T13:33:12.822Z,927.59
2018-03-02T13:34:44.632Z,927.53
2018-03-02T13:36:16.457Z,927.50
2018-03-02T13:37:48.285Z,927.44
2018-03-02T13:39:20.113Z,927.44
2018-03-02T13:40:51.940Z,927.37
2018-03-02T13:42:23.769Z,927.25
2018-03-02T13:43:55.606Z,927.23
2018-03-02T13:45:27.453Z,927.46
2018-03-02T13:46:59.455Z,927.35
2018-03-02T13:48:31.236Z,927.26
2018-03-02T13:50:02.915Z,927.30
2018-03-02T13:51:34.735Z,927.25
2018-03-02T13:54:38.441Z,927.06
2018-03-02T13:56:10.423Z,927.05
2018-03-02T13:57:42.051Z,927.18
2018-03-02T13:59:13.933Z,927.19
2018-03-02T14:00:45.766Z,927.09
2018-03-02T14:02:17.640Z,926.96
2018-03-02T14:05:21.189Z,926.97
2018-03-02T14:06:53.456Z,927.09
2018-03-02T14:08:24.847Z,927.03
2018-03-02T14:09:56.675Z,926.92
2018-03-02T14:11:28.503Z,927.00
2018-03-02T14:13:00.329Z,927.07
2018-03-02T14:14:32.157Z,926.83
2018-03-02T14:16:04.732Z,926.93
2018-03-02T14:17:35.812Z,927.01
2018-03-02T14:20:39.466Z,926.97
2018-03-02T14:23:43.122Z,926.78
2018-03-02T14:25:15.032Z,926.77
2018-03-02T14:26:47.181Z,926.90
2018-03-02T14:28:18.738Z,926.88
2018-03-02T14:29:50.437Z,926.94
2018-03-02T14:31:22.483Z,926.91
2018-03-02T14:32:54.085Z,926.80
2018-03-02T14:34:25.925Z,926.73
2018-03-02T14:35:57.739Z,926.66
2018-03-02T14:37:29.771Z,926.55
2018-03-02T14:39:01.398Z,926.46
2018-03-02T14:40:33.431Z,926.38
2018-03-02T14:42:05.336Z,926.54
2018-03-02T14:43:36.885Z,926.49
2018-03-02T14:45:08.867Z,926.45
2018-03-02T14:46:40.571Z,926.41
2018-03-02T14:48:12.426Z,926.27
2018-03-02T14:51:16.036Z,926.18
2018-03-02T14:52:47.866Z,926.23
2018-03-02T14:54:19.695Z,926.20
2018-03-02T14:55:52.303Z,926.38
2018-03-02T14:58:55.382Z,926.26
2018-03-02T15:00:27.579Z,926.20
2018-03-02T15:01:58.839Z,926.05
2018-03-02T15:03:30.664Z,925.99
2018-03-02T15:05:02.595Z,926.08
2018-03-02T15:06:34.346Z,926.06
2018-03-02T15:08:06.149Z,926.02
2018-03-02T15:09:37.980Z,926.02
2018-03-02T15:11:09.816Z,926.21
2018-03-02T15:14:13.463Z,926.26
2018-03-02T15:15:45.287Z,926.24
2018-03-02T15:17:17.117Z,926.06
2018-03-02T15:18:49.516Z,926.30
2018-03-02T15:20:20.774Z,926.24
2018-03-02T15:21:52.601Z,926.11
2018-03-02T15:23:24.530Z,926.13
2018-03-02T15:24:56.261Z,926.05
2018-03-02T15:26:28.297Z,926.00
2018-03-02T15:29:31.752Z,925.58
2018-03-02T15:31:03.797Z,925.51
2018-03-02T15:32:35.415Z,925.50
2018-03-02T15:34:07.444Z,925.54
2018-03-02T15:35:39.073Z,925.66
2018-03-02T15:37:10.901Z,925.74
2018-03-02T15:38:42.730Z,925.80
2018-03-02T15:40:14.561Z,925.71
2018-03-02T15:41:46.491Z,925.66
2018-03-02T15:43:18.222Z,925.58
2018-03-02T15:44:50.053Z,925.64
2018-03-02T15:46:21.889Z,925.61
2018-03-02T15:49:26.077Z,925.61
2018-03-02T15:50:57.379Z,925.49
2018-03-02T15:52:29.212Z,925.39
2018-03-02T15:54:01.044Z,925.39
2018-03-02T15:55:32.877Z,925.34
2018-03-02T15:57:04.711Z,925.32
2018-03-02T15:58:36.545Z,925.26
2018-03-02T16:00:08.379Z,925.24
2018-03-02T16:01:40.515Z,925.01
2018-03-02T16:03:12.048Z,925.03
2018-03-02T16:04:43.881Z,925.18
2018-03-02T16:07:47.646Z,925.15
2018-03-02T16:09:19.380Z,925.11
2018-03-02T16:10:51.418Z,925.17
2018-03-02T16:12:23.047Z,925.12
2018-03-02T16:13:55.133Z,925.13
2018-03-02T16:15:26.713Z,925.11
2018-03-02T16:16:58.559Z,924.78
2018-03-02T16:20:02.518Z,924.74
2018-03-02T16:21:34.106Z,924.74
2018-03-02T16:23:06.457Z,924.66
2018-03-02T16:24:37.926Z,924.59
2018-03-02T16:26:09.551Z,924.71
2018-03-02T16:27:41.944Z,924.66
2018-03-02T16:30:45.050Z,924.52
2018-03-02T16:32:17.398Z,924.61
2018-03-02T16:35:20.652Z,924.36
2018-03-02T16:36:52.552Z,924.36
2018-03-02T16:38:24.582Z,924.42
2018-03-02T16:39:56.172Z,924.29
2018-03-02T16:41:28.058Z,924.40
2018-03-02T16:42:59.902Z,924.40
2018-03-02T16:44:32.559Z,924.37
2018-03-02T16:46:03.964Z,924.16
2018-03-02T16:47:35.300Z,924.15
2018-03-02T16:49:07.188Z,924.03
2018-03-02T16:50:39.293Z,923.95
2018-03-02T16:55:14.322Z,923.60
2018-03-02T16:56:47.674Z,923.51
2018-03-02T16:58:18.950Z,923.48
2018-03-02T17:01:21.627Z,923.48
2018-03-02T17:02:53.457Z,923.47
2018-03-02T17:04:25.284Z,923.57
2018-03-02T17:05:58.085Z,923.63
2018-03-02T17:07:28.934Z,923.69
2018-03-02T17:09:00.764Z,923.73
2018-03-02T17:10:32.589Z,923.70
2018-03-02T17:13:36.238Z,923.77
2018-03-02T17:15:08.164Z,923.80
2018-03-02T17:16:39.890Z,923.88
2018-03-02T17:18:11.916Z,924.22
2018-03-02T17:19:43.537Z,924.40
2018-03-02T17:22:47.187Z,924.42
2018-03-02T17:24:19.009Z,924.49
2018-03-02T17:25:50.996Z,924.41
2018-03-02T17:27:22.654Z,924.20
2018-03-02T17:30:26.406Z,924.17
2018-03-02T17:31:58.116Z,924.10
2018-03-02T17:33:30.152Z,923.95
2018-03-02T17:35:02.277Z,923.92
2018-03-02T17:36:33.573Z,924.05
2018-03-02T17:39:37.215Z,924.48
2018-03-02T17:41:09.333Z,924.53
2018-03-02T17:42:40.848Z,924.50
2018-03-02T17:44:12.668Z,924.38
2018-03-02T17:45:44.490Z,924.28
2018-03-02T17:47:16.619Z,924.26
2018-03-02T17:48:48.233Z,924.15
2018-03-02T17:50:19.950Z,924.02
2018-03-02T17:51:51.771Z,924.00
2018-03-02T17:53:23.593Z,924.00
2018-03-02T17:54:55.419Z,923.99
2018-03-02T17:56:27.233Z,923.97
2018-03-02T17:57:59.053Z,923.86
2018-03-02T17:59:30.874Z,923.87
2018-03-02T18:01:02.900Z,923.95
2018-03-02T18:02:34.515Z,923.93
2018-03-02T18:04:06.336Z,923.95
2018-03-02T18:05:38.155Z,924.01
2018-03-02T18:07:10.076Z,924.01
2018-03-02T18:08:41.796Z,924.06
2018-03-02T18:10:13.616Z,924.08
2018-03-02T18:11:45.440Z,924.04
2018-03-02T18:13:17.255Z,924.01
2018-03-02T18:14:49.080Z,923.99
2018-03-02T18:16:20.893Z,923.92
2018-03-02T18:19:24.530Z,923.81
2018-03-02T18:20:56.354Z,923.74
2018-03-02T18:22:28.167Z,923.74
2018-03-02T18:23:59.986Z,923.64
2018-03-02T18:25:31.904Z,923.57
2018-03-02T18:27:03.627Z,923.51
2018-03-02T18:28:35.440Z,923.51
2018-03-02T18:30:07.266Z,923.49
2018-03-02T18:31:39.082Z,923.43
2018-03-02T18:36:14.528Z,923.58
2018-03-02T18:37:46.347Z,923.72
2018-03-02T18:39:18.206Z,923.89
2018-03-02T18:40:49.981Z,923.94
2018-03-02T18:42:21.797Z,924.09
2018-03-02T18:43:53.716Z,924.10
2018-03-02T18:45:25.433Z,924.27
2018-03-02T18:46:57.253Z,924.29
2018-03-02T18:48:29.068Z,924.25
2018-03-02T18:50:00.887Z,924.23
2018-03-02T18:51:32.706Z,924.25
2018-03-02T18:53:04.536Z,924.17
2018-03-02T18:54:36.339Z,924.14
2018-03-02T18:56:08.229Z,924.10
2018-03-02T18:57:39.975Z,924.07
2018-03-02T18:59:11.788Z,923.97
2018-03-02T19:00:43.606Z,924.01
2018-03-02T19:02:15.538Z,923.96
2018-03-02T19:03:47.241Z,923.83
2018-03-02T19:05:19.089Z,923.80
2018-03-02T19:06:50.875Z,923.83
2018-03-02T19:09:54.610Z,924.01
2018-03-02T19:11:26.326Z,923.98
2018-03-02T19:12:58.176Z,924.02
2018-03-02T19:14:29.961Z,924.00
2018-03-02T19:17:33.881Z,923.91
2018-03-02T19:19:05.416Z,923.97
2018-03-02T19:20:37.234Z,923.96
2018-03-02T19:22:09.051Z,923.99
2018-03-02T19:23:40.869Z,924.03
2018-03-02T19:25:12.687Z,924.11
2018-03-02T19:26:44.505Z,924.22
2018-03-02T19:28:16.325Z,924.15
2018-03-02T19:29:48.334Z,924.21
2018-03-02T19:31:19.961Z,924.26
2018-03-02T19:32:51.783Z,924.17
2018-03-02T19:34:23.598Z,924.22
2018-03-02T19:35:55.517Z,924.19
2018-03-02T19:37:27.236Z,924.19
2018-03-02T19:38:59.055Z,924.10
2018-03-02T19:40:30.873Z,924.08
2018-03-02T19:43:34.609Z,923.97
2018-03-02T19:45:06.329Z,923.99
2018-03-02T19:46:38.146Z,924.04
2018-03-02T19:48:09.965Z,924.05
2018-03-02T19:49:41.783Z,924.02
2018-03-02T19:51:13.602Z,924.02
2018-03-02T19:54:17.238Z,924.02
2018-03-02T19:55:49.158Z,924.05
2018-03-02T19:57:20.876Z,924.02
2018-03-02T19:58:52.694Z,924.08
2018-03-02T20:00:24.513Z,924.00
2018-03-02T20:01:56.338Z,924.04
2018-03-02T20:03:28.150Z,923.99
2018-03-02T20:05:00.051Z,923.96
2018-03-02T20:06:31.815Z,923.94
2018-03-02T20:08:03.606Z,924.03
2018-03-02T20:09:35.425Z,924.07
2018-03-02T20:11:07.246Z,924.14
2018-03-02T20:12:39.636Z,924.23
2018-03-02T20:14:10.982Z,924.25
2018-03-02T20:15:42.700Z,924.30
2018-03-02T20:17:14.521Z,924.27
2018-03-02T20:18:46.337Z,924.35